Time;durP1;ratioP1;P1;durP2;ratioP2;P2;SDS_P1;SDS_P2;PMS_P1;PMS_P2;Temp;Humidity;BMP_temperature;BMP_pressure;BME280_temperature;BME280_humidity;BME280_pressure;Samples;Min_cycle;Max_cycle;Signal;HPM_P1;HPM_P2
2022/01/20 00:02:37;;;;;;;182.68;82.40;;;;;;;11.00;59.92;101520.69;5084643;28;20044;-84
2022/01/20 00:23:15;;;;;;;448.35;204.63;;;;;;;10.95;62.15;101490.84;5078567;28;20044;-83
2022/01/20 00:26:46;;;;;;;465.70;223.07;;;;;;;11.08;64.54;101507.19;5080247;28;20040;-84
2022/01/20 00:29:34;;;;;;;327.88;146.40;;;;;;;11.11;64.27;101520.22;5063616;28;20049;-84
2022/01/20 00:32:22;;;;;;;426.10;191.55;;;;;;;11.07;62.45;101523.84;5077823;28;20044;-86
2022/01/20 00:35:17;;;;;;;365.88;161.23;;;;;;;11.06;62.61;101519.50;5069469;28;20044;-84
2022/01/20 00:38:02;;;;;;;422.67;195.40;;;;;;;11.06;64.05;101531.22;5062970;28;20032;-84
2022/01/20 00:40:47;;;;;;;403.85;176.68;;;;;;;11.08;64.22;101523.53;5086097;28;20036;-84
2022/01/20 00:43:32;;;;;;;;;;;;;;;11.07;62.94;101521.91;5071868;28;20044;-84
2022/01/20 00:46:18;;;;;;;362.55;152.68;;;;;;;11.07;64.07;101530.06;5064100;28;19912;-84
2022/01/20 00:49:03;;;;;;;189.70;88.93;;;;;;;11.00;62.73;101535.13;5083007;28;20420;-83
2022/01/20 00:51:47;;;;;;;230.95;99.82;;;;;;;10.93;59.70;101544.75;5083172;28;20052;-84
2022/01/20 00:54:32;;;;;;;192.40;84.68;;;;;;;10.93;60.82;101528.44;5090187;28;20036;-86
2022/01/20 00:57:19;;;;;;;390.77;178.00;;;;;;;10.99;65.40;101517.16;5095430;28;20237;-85
2022/01/20 01:00:08;;;;;;;313.58;141.13;;;;;;;11.03;65.92;101514.66;5088777;28;20040;-86
2022/01/20 01:02:53;;;;;;;203.07;91.80;;;;;;;10.92;62.17;101521.38;5095000;28;20029;-86
2022/01/20 01:05:49;;;;;;;279.02;118.10;;;;;;;10.89;61.55;101513.81;5072393;28;20044;-85
2022/01/20 01:08:34;;;;;;;351.23;156.52;;;;;;;10.95;64.50;101516.16;5071760;28;20428;-85
2022/01/20 01:11:20;;;;;;;278.63;125.15;;;;;;;10.94;64.95;101500.94;5073230;28;20048;-85
2022/01/20 01:14:06;;;;;;;361.98;159.73;;;;;;;10.98;65.40;101514.72;5100004;28;20048;-86
2022/01/20 01:22:53;;;;;;;344.05;149.82;;;;;;;10.99;65.78;101519.06;5060655;28;20040;-85
2022/01/20 01:25:38;;;;;;;253.15;109.50;;;;;;;10.96;65.33;101517.78;5069424;28;20041;-84
2022/01/20 01:28:26;;;;;;;;;;;;;;;11.02;66.88;101526.66;5073755;28;20044;-85
2022/01/20 01:34:03;;;;;;;319.50;140.40;;;;;;;10.98;66.32;101512.81;5068419;28;20063;-85
2022/01/20 01:39:34;;;;;;;;;;;;;;;10.96;65.81;101511.53;5073164;28;20037;-84
2022/01/20 01:42:25;;;;;;;303.13;131.02;;;;;;;10.92;66.38;101514.00;5071564;28;19912;-84
2022/01/20 01:45:35;;;;;;;276.75;121.22;;;;;;;10.92;65.33;101514.00;5076261;28;20036;-85
2022/01/20 01:48:21;;;;;;;223.32;98.72;;;;;;;10.86;64.54;101501.63;5056755;28;20045;-84
2022/01/20 01:51:07;;;;;;;248.48;113.30;;;;;;;10.84;64.84;101503.00;5066517;28;20040;-84
2022/01/20 01:53:53;;;;;;;252.63;114.90;;;;;;;10.85;65.12;101510.88;5057224;28;20045;-84
2022/01/20 01:56:41;;;;;;;255.57;117.13;;;;;;;10.87;66.27;101508.66;5072562;28;20036;-84
2022/01/20 01:59:29;;;;;;;248.75;114.72;;;;;;;10.89;66.45;101517.34;5069673;28;20044;-84
2022/01/20 02:02:23;;;;;;;257.40;117.32;;;;;;;10.88;66.77;101504.84;5069933;28;20049;-84
2022/01/20 02:05:10;;;;;;;257.45;111.75;;;;;;;10.89;67.14;101502.91;5066956;28;20052;-84
2022/01/20 02:20:20;;;;;;;217.63;98.85;;;;;;;10.93;67.50;101472.09;5071947;28;20036;-85
2022/01/20 02:23:10;;;;;;;224.13;102.72;;;;;;;10.91;67.49;101460.72;5059695;28;20048;-84
2022/01/20 02:25:58;;;;;;;202.50;94.43;;;;;;;10.87;66.61;101450.72;5065231;28;20049;-84
2022/01/20 02:28:44;;;;;;;;;;;;;;;10.91;67.91;101447.13;5077822;28;20424;-85
2022/01/20 02:31:29;;;;;;;155.90;69.28;;;;;;;10.87;67.54;101448.78;5076751;28;19923;-85
2022/01/20 02:34:16;;;;;;;201.13;92.75;;;;;;;10.89;67.70;101443.06;5072262;28;21268;-85
2022/01/20 02:37:06;;;;;;;196.93;90.97;;;;;;;10.88;66.79;101433.28;5072903;28;20439;-85
2022/01/20 02:46:04;;;;;;;184.30;86.60;;;;;;;10.84;67.07;101405.88;5053775;28;20036;-86
2022/01/20 02:48:49;;;;;;;189.95;82.57;;;;;;;10.82;67.25;101415.44;5064548;28;20032;-87
2022/01/20 02:51:35;;;;;;;138.75;63.70;;;;;;;10.83;67.57;101415.13;5075569;28;20036;-86
2022/01/20 02:54:22;;;;;;;169.10;79.85;;;;;;;10.83;66.80;101415.13;5072893;28;20062;-86
2022/01/20 02:57:07;;;;;;;165.35;78.60;;;;;;;10.82;67.11;101396.41;5071407;28;20044;-86
2022/01/20 02:59:53;;;;;;;178.30;82.90;;;;;;;10.81;68.03;101389.34;5071379;28;20040;-86
2022/01/20 03:02:38;;;;;;;;;;;;;;;10.86;68.89;101398.22;5089151;28;20040;-86
2022/01/20 03:05:23;;;;;;;173.98;79.18;;;;;;;10.81;68.11;101394.78;5086515;28;19913;-87
2022/01/20 03:08:15;;;;;;;165.60;76.88;;;;;;;10.84;68.49;101397.72;5076455;28;20068;-86
2022/01/20 03:11:00;;;;;;;;;;;;;;;10.85;67.82;101383.00;5077888;28;20401;-87
2022/01/20 03:13:45;;;;;;;151.95;70.95;;;;;;;10.84;68.20;101380.56;5072198;28;20304;-87
2022/01/20 03:16:31;;;;;;;;;;;;;;;10.82;66.68;101377.38;5084402;28;20045;-87
2022/01/20 03:19:17;;;;;;;136.27;65.22;;;;;;;10.77;65.21;101364.63;5072327;28;19927;-87
2022/01/20 03:22:02;;;;;;;132.90;64.68;;;;;;;10.79;66.69;101367.88;5070183;28;20044;-85
2022/01/20 03:24:50;;;;;;;141.07;65.55;;;;;;;10.77;66.75;101367.34;5070176;28;20044;-85
2022/01/20 03:27:35;;;;;;;82.45;41.95;;;;;;;10.70;63.42;101358.81;5068573;28;20044;-85
2022/01/20 03:30:21;;;;;;;75.32;35.45;;;;;;;10.66;63.83;101364.03;5068500;28;20036;-83
2022/01/20 03:33:07;;;;;;;142.82;65.53;;;;;;;10.70;66.23;101375.13;5072083;28;20419;-84
2022/01/20 03:35:53;;;;;;;69.88;36.70;;;;;;;10.57;61.97;101375.88;5070073;28;20048;-84
2022/01/20 03:38:57;;;;;;;66.80;33.78;;;;;;;10.52;60.45;101363.19;5080613;28;20048;-83
2022/01/20 03:41:42;;;;;;;;;;;;;;;10.55;62.08;101367.25;5073284;28;20060;-86
2022/01/20 03:44:36;;;;;;;102.97;50.08;;;;;;;10.59;64.04;101368.25;5061244;28;19913;-86
2022/01/20 03:47:24;;;;;;;;;;;;;;;10.64;65.28;101365.44;5074105;28;20048;-85
2022/01/20 03:50:59;;;;;;;114.47;54.63;;;;;;;10.63;66.22;101369.25;5066133;28;19912;-84
2022/01/20 03:53:16;;;;;;;86.05;38.78;;;;;;;10.62;65.51;101364.91;5065881;28;20040;-86
2022/01/20 03:56:02;;;;;;;71.43;36.97;;;;;;;10.56;63.39;101358.78;5071228;28;20040;-85
2022/01/20 03:58:55;;;;;;;75.32;37.70;;;;;;;10.53;62.52;101347.69;5068923;28;20520;-86
2022/01/20 04:01:40;;;;;;;72.93;37.47;;;;;;;10.53;62.99;101344.97;5066050;28;20044;-86
2022/01/20 04:04:44;;;;;;;85.15;42.67;;;;;;;10.52;63.25;101337.91;5083862;28;20044;-85
2022/01/20 04:07:35;;;;;;;101.22;51.45;;;;;;;10.57;65.90;101345.97;5072265;28;20045;-84
2022/01/20 04:10:20;;;;;;;111.30;55.05;;;;;;;10.60;67.99;101353.53;5065788;28;20041;-84
2022/01/20 04:13:05;;;;;;;82.25;40.13;;;;;;;10.63;68.46;101352.94;5069342;28;20045;-84
2022/01/20 04:15:51;;;;;;;;;;;;;;;10.67;68.73;101345.78;5072575;28;20513;-84
2022/01/20 04:18:36;;;;;;;94.43;45.20;;;;;;;10.55;65.40;101334.59;5065607;28;19912;-84
2022/01/20 04:21:24;;;;;;;73.70;33.90;;;;;;;10.55;65.54;101332.69;5062217;28;20449;-84
2022/01/20 04:24:10;;;;;;;98.70;48.35;;;;;;;10.58;67.56;101326.66;5047949;28;20494;-84
2022/01/20 04:26:55;;;;;;;95.45;49.72;;;;;;;10.59;68.60;101330.16;5059995;28;20037;-85
2022/01/20 04:29:41;;;;;;;93.60;46.63;;;;;;;10.58;69.00;101329.34;5050710;28;20049;-87
2022/01/20 04:32:26;;;;;;;;;;;;;;;10.59;68.64;101328.25;5069153;28;20509;-84
2022/01/20 04:35:11;;;;;;;92.78;44.40;;;;;;;10.57;68.51;101325.03;5072549;28;19913;-86
2022/01/20 04:37:57;;;;;;;88.38;43.60;;;;;;;10.59;68.87;101330.16;5073376;28;20040;-86
2022/01/20 04:40:43;;;;;;;89.90;47.28;;;;;;;10.58;69.06;101331.28;5075285;28;20036;-86
2022/01/20 04:43:28;;;;;;;87.00;42.38;;;;;;;10.59;69.25;101347.28;5073610;28;20432;-86
2022/01/20 04:57:54;;;;;;;85.68;43.50;;;;;;;10.69;71.57;101354.47;5068519;28;20040;-84
2022/01/20 05:00:39;;;;;;;69.70;35.22;;;;;;;10.68;71.31;101361.81;5071238;28;20045;-85
2022/01/20 05:03:45;;;;;;;85.97;41.45;;;;;;;10.69;70.80;101358.00;5081006;28;20512;-85
2022/01/20 05:06:47;;;;;;;80.57;39.22;;;;;;;10.66;71.01;101357.78;5073276;28;20057;-85
2022/01/20 05:09:34;;;;;;;88.45;40.90;;;;;;;10.67;70.79;101362.09;5068355;28;20428;-85
2022/01/20 05:12:25;;;;;;;84.22;41.13;;;;;;;10.68;70.93;101361.00;5073326;28;20032;-84
2022/01/20 05:15:10;;;;;;;78.00;39.20;;;;;;;10.66;71.75;101369.47;5065455;28;20032;-85
2022/01/20 05:17:58;;;;;;;80.95;40.58;;;;;;;10.69;71.92;101377.03;5050148;28;20048;-85
2022/01/20 05:20:43;;;;;;;82.60;41.08;;;;;;;10.72;72.45;101373.69;5053749;28;20046;-86
2022/01/20 05:23:28;;;;;;;;;;;;;;;10.79;73.07;101378.75;5058631;28;20040;-87
2022/01/20 05:26:13;;;;;;;79.82;36.83;;;;;;;10.79;72.84;101367.88;5076312;28;19912;-85
2022/01/20 05:28:59;;;;;;;75.35;37.15;;;;;;;10.78;72.74;101377.13;5070929;28;20417;-85
2022/01/20 05:31:44;;;;;;;62.20;31.33;;;;;;;10.75;72.23;101375.03;5073915;28;20037;-85
2022/01/20 05:34:28;;;;;;;;;;;;;;;10.79;71.93;101365.16;5075467;28;20493;-85
2022/01/20 05:37:15;;;;;;;72.57;36.05;;;;;;;10.73;71.15;101369.06;5073281;28;19912;-85
2022/01/20 05:40:01;;;;;;;62.97;32.22;;;;;;;10.71;70.79;101374.03;5051759;28;20045;-85
2022/01/20 05:42:48;;;;;;;62.35;33.33;;;;;;;10.71;70.80;101369.41;5065912;28;20037;-85
2022/01/20 05:45:33;;;;;;;57.70;27.77;;;;;;;10.74;71.25;101373.41;5074292;28;20437;-85
2022/01/20 05:48:31;;;;;;;67.63;35.38;;;;;;;10.80;71.63;101380.38;5067633;28;20040;-85
2022/01/20 05:51:36;;;;;;;47.05;23.75;;;;;;;10.82;71.74;101391.75;5088378;28;20040;-85
2022/01/20 05:54:22;;;;;;;60.13;31.00;;;;;;;10.80;71.57;101390.44;5086195;28;20048;-85
2022/01/20 05:57:10;;;;;;;73.00;33.78;;;;;;;10.81;71.65;101397.50;5092848;28;20056;-86
2022/01/20 05:59:58;;;;;;;64.05;32.10;;;;;;;10.80;71.48;101385.00;5086995;28;20032;-83
2022/01/20 06:05:55;;;;;;;60.53;30.42;;;;;;;10.78;71.47;101379.84;5071037;28;20041;-84
2022/01/20 06:08:42;;;;;;;41.35;22.13;;;;;;;10.79;70.87;101383.38;5067322;28;20053;-83
2022/01/20 06:11:26;;;;;;;56.35;28.30;;;;;;;10.77;71.04;101375.53;5077465;28;20116;-83
2022/01/20 06:14:11;;;;;;;38.90;22.27;;;;;;;10.71;70.52;101366.66;5074151;28;20416;-82
2022/01/20 06:16:56;;;;;;;;;;;;;;;10.71;71.08;101366.66;5071650;28;20044;-85
2022/01/20 06:19:42;;;;;;;53.33;26.65;;;;;;;10.70;71.48;101384.09;5064517;28;19916;-83
2022/01/20 06:22:27;;;;;;;43.40;24.38;;;;;;;10.15;59.48;101380.38;5067109;28;20040;-84
2022/01/20 06:25:12;;;;;;;40.35;23.23;;;;;;;8.74;57.22;101395.72;5063086;28;20048;-81
2022/01/20 06:27:58;;;;;;;35.90;19.23;;;;;;;7.77;60.08;101378.59;5074192;28;20045;-84
2022/01/20 06:30:43;;;;;;;42.03;25.30;;;;;;;7.28;62.36;101384.78;5069047;28;20051;-81
2022/01/20 06:33:27;;;;;;;40.80;20.50;;;;;;;6.62;63.41;101386.84;5077603;28;20051;-82
2022/01/20 06:36:15;;;;;;;43.10;24.38;;;;;;;5.75;68.43;101375.16;5084447;28;20051;-83
2022/01/20 06:38:59;;;;;;;41.33;19.83;;;;;;;5.10;69.90;101378.44;5067864;28;20051;-82
2022/01/20 06:41:44;;;;;;;39.22;21.13;;;;;;;4.45;72.79;101371.59;5063047;28;20044;-82
2022/01/20 06:44:29;;;;;;;36.65;20.00;;;;;;;4.29;73.96;101372.53;5063805;28;20505;-83
2022/01/20 06:47:15;;;;;;;38.88;19.02;;;;;;;4.21;74.70;101367.66;5065268;28;20056;-86
2022/01/20 06:50:00;;;;;;;43.40;20.92;;;;;;;4.08;75.26;101374.25;5076936;28;20051;-85
2022/01/20 06:52:46;;;;;;;53.65;26.92;;;;;;;3.50;78.04;101358.09;5062428;28;20040;-85
2022/01/20 06:55:31;;;;;;;53.50;26.13;;;;;;;3.39;78.74;101351.78;5070464;28;20040;-86
2022/01/20 06:58:16;;;;;;;41.05;19.50;;;;;;;3.56;80.35;101367.81;5062923;28;20037;-86
2022/01/20 07:01:01;;;;;;;36.83;18.95;;;;;;;4.32;76.36;101362.06;5059975;28;20043;-86
2022/01/20 07:03:46;;;;;;;40.10;19.83;;;;;;;4.15;76.24;101366.78;5087055;28;20032;-86
2022/01/20 07:06:32;;;;;;;53.83;25.00;;;;;;;4.39;76.60;101358.34;5088705;28;20049;-82
2022/01/20 07:09:35;;;;;;;53.42;27.85;;;;;;;4.09;76.02;101369.69;5077046;28;20048;-81
2022/01/20 07:12:33;;;;;;;44.75;24.05;;;;;;;4.19;76.20;101377.84;5065055;28;20040;-80
2022/01/20 07:15:19;;;;;;;52.28;25.90;;;;;;;4.01;76.56;101380.91;5070344;28;20036;-82
2022/01/20 07:18:05;;;;;;;48.42;23.77;;;;;;;3.48;79.35;101377.13;5066213;28;20523;-82
2022/01/20 07:20:50;;;;;;;37.92;20.13;;;;;;;3.39;80.27;101373.28;5063963;28;20048;-83
2022/01/20 07:23:48;;;;;;;48.03;23.52;;;;;;;3.39;80.10;101378.66;5063859;28;20139;-83
2022/01/20 07:26:33;;;;;;;47.17;22.67;;;;;;;3.29;80.64;101378.53;5070774;28;20037;-83
2022/01/20 07:29:26;;;;;;;47.67;23.55;;;;;;;3.00;82.22;101376.00;5064608;28;20045;-83
2022/01/20 07:32:11;;;;;;;56.58;26.20;;;;;;;2.82;83.57;101367.44;5062897;28;20043;-83
2022/01/20 07:34:56;;;;;;;42.00;21.00;;;;;;;2.74;83.43;101373.25;5068775;28;20045;-82
2022/01/20 07:37:41;;;;;;;44.58;20.70;;;;;;;2.76;84.04;101374.59;5064396;28;20413;-82
2022/01/20 07:40:26;;;;;;;45.65;23.02;;;;;;;2.79;83.68;101363.38;5060190;28;20044;-83
2022/01/20 07:43:11;;;;;;;47.25;22.27;;;;;;;2.67;84.72;101362.66;5074342;28;20032;-82
2022/01/20 07:46:04;;;;;;;58.60;30.83;;;;;;;2.66;85.29;101369.09;5064025;28;20040;-82
2022/01/20 07:49:15;;;;;;;54.65;27.92;;;;;;;2.82;85.00;101372.81;5055788;28;20049;-82
2022/01/20 07:52:01;;;;;;;60.88;26.63;;;;;;;3.01;84.55;101382.19;5056303;28;20028;-82
2022/01/20 07:54:46;;;;;;;35.13;19.48;;;;;;;3.09;83.59;101378.28;5064230;28;20044;-83
2022/01/20 07:57:31;;;;;;;43.20;20.33;;;;;;;3.51;82.84;101381.19;5079094;28;20052;-83
2022/01/20 08:00:16;;;;;;;38.25;18.65;;;;;;;3.94;80.37;101381.13;5063767;28;20044;-83
2022/01/20 08:03:01;;;;;;;49.97;23.90;;;;;;;3.90;79.65;101377.31;5078617;28;20051;-83
2022/01/20 08:05:58;;;;;;;44.88;24.25;;;;;;;3.76;79.02;101382.28;5062876;28;20043;-83
2022/01/20 08:08:50;;;;;;;47.40;23.48;;;;;;;3.87;79.62;101380.50;5068332;28;20053;-83
2022/01/20 08:11:48;;;;;;;53.22;26.10;;;;;;;3.54;80.28;101372.63;5079323;28;20048;-83
2022/01/20 08:14:52;;;;;;;50.92;25.20;;;;;;;3.14;82.76;101365.72;5078868;28;20051;-83
2022/01/20 08:17:49;;;;;;;57.90;29.48;;;;;;;3.01;84.33;101366.06;5063348;28;20404;-83
2022/01/20 08:20:34;;;;;;;54.22;25.58;;;;;;;2.81;85.67;101369.31;5066500;28;20048;-83
2022/01/20 08:23:22;;;;;;;59.60;30.02;;;;;;;3.06;85.03;101366.16;5063387;28;20052;-83
2022/01/20 08:26:07;;;;;;;53.65;26.75;;;;;;;3.03;84.96;101353.22;5062417;28;20049;-82
2022/01/20 08:28:53;;;;;;;55.72;25.67;;;;;;;2.90;85.44;101370.50;5063879;28;20392;-82
2022/01/20 08:31:37;;;;;;;;;;;;;;;2.83;86.14;101377.94;5064169;28;20041;-83
2022/01/20 08:34:40;;;;;;;65.30;32.47;;;;;;;3.10;85.39;101391.44;5037601;28;19913;-83
2022/01/20 08:37:45;;;;;;;61.00;31.88;;;;;;;3.08;84.10;101393.59;5065860;28;20505;-82
2022/01/20 08:40:30;;;;;;;58.22;29.73;;;;;;;3.02;84.41;101389.19;5068589;28;20040;-81
2022/01/20 08:43:15;;;;;;;66.40;33.92;;;;;;;3.03;84.61;101390.00;5065885;28;20052;-85
2022/01/20 08:46:02;;;;;;;67.90;31.98;;;;;;;3.45;84.18;101393.78;5061954;28;20048;-84
2022/01/20 08:48:46;;;;;;;58.72;29.73;;;;;;;3.63;82.64;101388.06;5075182;28;20051;-82
2022/01/20 08:51:40;;;;;;;65.18;31.30;;;;;;;3.40;83.71;101383.75;5057563;28;20036;-86
2022/01/20 08:54:34;;;;;;;63.45;31.98;;;;;;;3.49;83.91;101380.66;5062317;28;20041;-84
2022/01/20 08:57:28;;;;;;;61.78;31.67;;;;;;;4.12;81.76;101378.03;5064757;28;20330;-84
2022/01/20 09:00:15;;;;;;;104.90;36.67;;;;;;;4.74;78.75;101375.56;5063629;28;20237;-84
2022/01/20 09:03:12;;;;;;;55.15;31.33;;;;;;;4.65;77.77;101368.22;5053910;28;20413;-84
2022/01/20 09:05:57;;;;;;;57.25;31.80;;;;;;;4.70;77.83;101373.66;5056058;28;20041;-82
2022/01/20 09:08:48;;;;;;;55.25;30.77;;;;;;;5.05;76.84;101384.63;5064020;28;20047;-82
2022/01/20 09:11:49;;;;;;;55.55;29.15;;;;;;;5.71;73.55;101390.28;5069511;28;20052;-83
2022/01/20 09:17:37;;;;;;;55.30;30.38;;;;;;;5.99;72.36;101391.72;5060106;28;20413;-81
2022/01/20 09:20:23;;;;;;;44.17;24.45;;;;;;;5.97;72.50;101389.28;5067610;28;20032;-84
2022/01/20 09:23:08;;;;;;;54.30;30.30;;;;;;;5.47;73.86;101389.13;5068027;28;20440;-82
2022/01/20 09:25:53;;;;;;;42.92;23.70;;;;;;;5.28;76.00;101380.69;5065346;28;20520;-81
2022/01/20 09:28:38;;;;;;;;;;;;;;;5.61;77.82;101379.44;5074970;28;20040;-81
2022/01/20 09:31:25;;;;;;;74.90;28.55;;;;;;;7.04;78.58;101371.09;5082349;28;20288;-82
2022/01/20 09:34:10;;;;;;;49.20;29.02;;;;;;;7.12;71.62;101373.22;5061492;28;20047;-83
2022/01/20 09:36:58;;;;;;;54.28;28.35;;;;;;;7.22;71.49;101372.34;5062818;28;20040;-82
2022/01/20 09:39:45;;;;;;;50.85;28.52;;;;;;;7.01;70.46;101365.44;5061414;28;20052;-82
2022/01/20 09:42:56;;;;;;;51.20;28.95;;;;;;;6.92;69.19;101358.94;5072129;28;20041;-83
2022/01/20 09:45:43;;;;;;;43.03;22.95;;;;;;;6.93;69.70;101355.16;5058655;28;20047;-83
2022/01/20 09:48:29;;;;;;;50.92;29.17;;;;;;;6.78;70.10;101370.34;5070759;28;20032;-83
2022/01/20 09:51:32;;;;;;;50.13;27.88;;;;;;;6.81;70.78;101367.06;5061533;28;20300;-83
2022/01/20 09:54:23;;;;;;;50.67;26.98;;;;;;;7.49;71.13;101367.38;5074750;28;20039;-83
2022/01/20 09:57:08;;;;;;;41.05;21.17;;;;;;;7.47;69.65;101360.63;5082166;28;20412;-82
2022/01/20 09:59:54;;;;;;;65.63;28.42;;;;;;;7.34;68.03;101348.50;5059606;28;20048;-82
2022/01/20 10:02:54;;;;;;;34.10;18.23;;;;;;;7.54;69.39;101361.94;5070711;28;20049;-82
2022/01/20 10:05:39;;;;;;;53.20;26.80;;;;;;;7.27;67.83;101351.50;5064215;28;20040;-81
2022/01/20 10:08:30;;;;;;;50.97;30.33;;;;;;;7.19;67.96;101349.41;5060170;28;20037;-82
2022/01/20 10:11:40;;;;;;;45.28;28.00;;;;;;;7.11;67.98;101347.25;5063899;28;20508;-81
2022/01/20 10:14:57;;;;;;;49.53;28.92;;;;;;;7.16;68.20;101351.84;5063120;28;20056;-82
2022/01/20 10:18:13;;;;;;;51.35;28.55;;;;;;;7.16;68.57;101349.94;5077404;28;20051;-83
2022/01/20 10:21:05;;;;;;;46.42;28.92;;;;;;;7.19;69.05;101356.69;5060001;28;20405;-82
2022/01/20 10:24:13;;;;;;;43.65;24.45;;;;;;;8.17;68.52;101353.94;5054294;28;20045;-81
2022/01/20 10:27:13;;;;;;;56.08;30.05;;;;;;;7.66;66.62;101335.34;5065161;28;20044;-81
2022/01/20 10:30:11;;;;;;;53.60;29.95;;;;;;;7.56;66.97;101338.13;5078496;28;20036;-82
2022/01/20 10:32:58;;;;;;;56.10;29.65;;;;;;;7.56;67.02;101326.50;5063049;28;20033;-82
2022/01/20 10:35:44;;;;;;;56.08;32.58;;;;;;;7.39;67.51;101316.03;5058804;28;20067;-81
2022/01/20 10:38:36;;;;;;;58.22;32.85;;;;;;;7.40;67.99;101314.94;5060246;28;20043;-83
2022/01/20 10:41:30;;;;;;;57.42;33.58;;;;;;;7.25;68.81;101302.31;5072935;28;20044;-82
2022/01/20 10:44:14;;;;;;;62.75;32.35;;;;;;;7.31;67.75;101298.47;5065524;28;20039;-83
2022/01/20 10:47:14;;;;;;;57.35;31.45;;;;;;;7.27;68.55;101304.72;5072880;28;20043;-82
2022/01/20 10:50:15;;;;;;;62.05;33.90;;;;;;;7.32;68.18;101308.22;5051947;28;20055;-83
2022/01/20 10:53:22;;;;;;;65.97;36.35;;;;;;;7.40;69.91;101297.91;5078194;28;20029;-82
2022/01/20 10:56:08;;;;;;;67.70;35.83;;;;;;;7.32;69.03;101280.34;5062060;28;20036;-82
2022/01/20 10:58:53;;;;;;;50.80;28.27;;;;;;;7.20;70.26;101269.06;5063648;28;20067;-83
2022/01/20 11:01:39;;;;;;;70.45;36.70;;;;;;;7.30;70.11;101271.72;5062396;28;20056;-82
2022/01/20 11:04:24;;;;;;;53.08;29.63;;;;;;;7.60;69.82;101268.81;5065302;28;20039;-82
2022/01/20 11:07:10;;;;;;;73.00;36.15;;;;;;;7.54;68.72;101264.53;5059176;28;20048;-83
2022/01/20 11:10:04;;;;;;;73.13;39.47;;;;;;;7.57;70.41;101258.53;5079254;28;20059;-82
2022/01/20 11:12:55;;;;;;;73.13;40.40;;;;;;;7.48;70.22;101256.72;5078131;28;20527;-83
2022/01/20 11:15:50;;;;;;;59.40;33.22;;;;;;;8.75;72.95;101249.03;5082642;28;20059;-82
2022/01/20 11:18:37;;;;;;;56.60;30.80;;;;;;;10.47;69.17;101261.84;5073037;28;20048;-83
2022/01/20 11:21:25;;;;;;;71.93;39.60;;;;;;;9.97;63.14;101256.22;5055386;28;20036;-84
2022/01/20 11:24:25;;;;;;;77.80;41.13;;;;;;;8.33;67.08;101241.63;5065134;28;20051;-85
2022/01/20 11:27:33;;;;;;;73.40;39.90;;;;;;;7.84;68.73;101233.69;5082827;28;20433;-85
2022/01/20 11:30:26;;;;;;;79.22;42.72;;;;;;;7.41;71.47;101230.00;5072074;28;20412;-84
2022/01/20 11:33:38;;;;;;;68.18;33.15;;;;;;;7.49;71.01;101221.25;5076190;28;20402;-84
2022/01/20 11:36:27;;;;;;;89.38;42.10;;;;;;;7.44;71.27;101221.28;5076756;28;20408;-85
2022/01/20 11:39:13;;;;;;;81.82;42.20;;;;;;;7.22;72.31;101208.19;5076131;28;20052;-83
2022/01/20 11:41:57;;;;;;;79.82;42.40;;;;;;;7.26;72.20;101205.75;5057275;28;20049;-85
2022/01/20 11:44:42;;;;;;;71.10;36.10;;;;;;;7.08;73.12;101200.97;5061518;28;20425;-85
2022/01/20 11:47:33;;;;;;;68.05;36.28;;;;;;;7.04;73.31;101199.94;5059446;28;20049;-85
2022/01/20 11:50:18;;;;;;;84.85;42.78;;;;;;;7.04;73.13;101208.84;5055819;28;20043;-85
2022/01/20 11:53:14;;;;;;;90.90;45.92;;;;;;;7.08;72.69;101199.09;5077884;28;20033;-84
2022/01/20 11:55:59;;;;;;;79.90;40.15;;;;;;;6.95;73.05;101190.78;5079687;28;20405;-84
2022/01/20 11:58:51;;;;;;;66.60;35.03;;;;;;;7.10;73.22;101190.69;5075285;28;20051;-85
2022/01/20 12:01:48;;;;;;;89.75;44.53;;;;;;;7.12;73.26;101183.09;5082512;28;20047;-85
2022/01/20 12:04:37;;;;;;;88.60;46.72;;;;;;;7.08;73.50;101173.94;5079126;28;20059;-84
2022/01/20 12:07:33;;;;;;;99.53;48.35;;;;;;;7.32;71.99;101155.91;5057214;28;20041;-85
2022/01/20 12:10:26;;;;;;;102.38;51.33;;;;;;;7.34;72.18;101145.63;5068481;28;20071;-85
2022/01/20 12:13:13;;;;;;;103.28;48.25;;;;;;;7.28;72.05;101142.16;5063328;28;20411;-85
2022/01/20 12:16:01;;;;;;;102.60;49.60;;;;;;;7.43;72.17;101137.69;5080281;28;20047;-83
2022/01/20 12:18:55;;;;;;;111.25;50.97;;;;;;;7.51;72.11;101134.41;5077278;28;20036;-84
2022/01/20 12:21:48;;;;;;;105.28;51.08;;;;;;;7.61;71.62;101129.69;5074459;28;20501;-82
2022/01/20 12:24:35;;;;;;;100.15;48.45;;;;;;;7.57;71.48;101123.22;5072495;28;20044;-83
2022/01/20 12:27:23;;;;;;;107.25;49.80;;;;;;;7.56;71.92;101120.81;5074451;28;20033;-82
2022/01/20 12:30:28;;;;;;;102.18;47.25;;;;;;;7.66;70.70;101115.31;5073895;28;20045;-81
2022/01/20 12:33:15;;;;;;;77.30;37.00;;;;;;;7.59;71.43;101114.81;5078766;28;20028;-82
2022/01/20 12:36:04;;;;;;;95.28;45.70;;;;;;;7.69;70.49;101112.84;5077551;28;20274;-83
2022/01/20 12:38:51;;;;;;;92.78;44.90;;;;;;;7.67;70.04;101109.59;5073579;28;20049;-82
2022/01/20 12:41:36;;;;;;;87.97;44.25;;;;;;;7.69;70.20;101110.13;5077700;28;20048;-84
2022/01/20 12:44:20;;;;;;;94.45;45.33;;;;;;;7.62;69.89;101104.22;5077245;28;20413;-83
2022/01/20 12:47:05;;;;;;;77.18;36.80;;;;;;;7.63;70.06;101113.97;5075156;28;20036;-83
2022/01/20 12:49:54;;;;;;;;;;;;;;;7.70;69.97;101109.03;5078367;28;20094;-83
2022/01/20 12:52:50;;;;;;;91.53;40.70;;;;;;;7.84;70.57;101105.63;5080588;28;19913;-83
2022/01/20 12:55:35;;;;;;;76.35;40.58;;;;;;;7.60;69.56;101103.72;5084412;28;20048;-83
2022/01/20 12:58:20;;;;;;;59.97;32.38;;;;;;;7.55;69.62;101097.56;5081109;28;20036;-82
2022/01/20 13:01:04;;;;;;;68.47;30.55;;;;;;;7.58;70.09;101092.38;5081216;28;20043;-83
2022/01/20 13:03:51;;;;;;;70.53;34.90;;;;;;;7.70;69.91;101100.91;5081089;28;20055;-85
2022/01/20 13:06:39;;;;;;;76.95;37.75;;;;;;;7.64;69.89;101090.41;5104597;28;20040;-85
2022/01/20 13:09:39;;;;;;;78.15;39.50;;;;;;;7.74;70.15;101087.59;5062750;28;20044;-86
2022/01/20 13:12:36;;;;;;;77.85;42.92;;;;;;;7.85;69.67;101072.06;5086549;28;20032;-88
2022/01/20 13:15:25;;;;;;;77.30;40.63;;;;;;;7.74;69.68;101065.94;5089497;28;20039;-84
2022/01/20 13:18:13;;;;;;;84.75;42.50;;;;;;;7.78;69.47;101055.34;5082045;28;20047;-87
2022/01/20 13:20:59;;;;;;;85.18;41.63;;;;;;;7.88;69.47;101052.53;5087175;28;20044;-89
2022/01/20 13:23:57;;;;;;;81.32;41.20;;;;;;;7.84;69.71;101046.88;5081958;28;20047;-87
2022/01/20 13:26:50;;;;;;;80.40;42.65;;;;;;;7.90;69.09;101053.88;5089556;28;20052;-86
2022/01/20 13:29:44;;;;;;;85.63;40.55;;;;;;;8.02;68.93;101064.28;5077751;28;20044;-86
2022/01/20 13:32:28;;;;;;;89.35;43.42;;;;;;;7.97;68.50;101058.94;5088836;28;20028;-88
2022/01/20 13:35:13;;;;;;;86.50;42.28;;;;;;;7.93;68.87;101058.69;5085748;28;20036;-88
2022/01/20 13:38:04;;;;;;;;;;;;;;;7.88;69.05;101053.34;5080272;28;20047;-88
2022/01/20 13:40:49;;;;;;;79.35;40.75;;;;;;;7.89;69.21;101054.94;5081198;28;19912;-87
2022/01/20 13:47:09;;;;;;;80.15;40.63;;;;;;;8.09;68.31;101056.59;5084726;28;20048;-87
2022/01/20 13:49:55;;;;;;;87.95;42.55;;;;;;;8.18;67.35;101054.84;5083742;28;20037;-88
2022/01/20 13:52:40;;;;;;;84.40;42.22;;;;;;;8.08;68.14;101044.16;5085285;28;20041;-88
2022/01/20 13:55:31;;;;;;;64.03;33.05;;;;;;;8.09;68.40;101040.34;5084055;28;20043;-88
2022/01/20 13:58:27;;;;;;;95.85;43.95;;;;;;;8.12;67.75;101026.25;5087764;28;20043;-87
2022/01/20 14:01:12;;;;;;;84.68;45.45;;;;;;;8.04;67.71;101019.56;5088266;28;20048;-87
2022/01/20 14:03:57;;;;;;;91.45;43.53;;;;;;;8.05;67.48;101012.25;5083409;28;20524;-87
2022/01/20 14:06:42;;;;;;;64.03;31.48;;;;;;;8.05;67.57;101012.25;5087015;28;20055;-87
2022/01/20 14:09:27;;;;;;;64.38;32.45;;;;;;;8.00;67.96;101021.25;5084857;28;20048;-87